createdAt,value
2019-04-05T00:01:16.806Z,8.30
2019-04-05T00:03:45.376Z,8.30
2019-04-05T00:06:13.992Z,8.30
2019-04-05T00:08:42.560Z,8.40
2019-04-05T00:11:11.099Z,8.40
2019-04-05T00:13:39.724Z,8.40
2019-04-05T00:16:10.102Z,8.40
2019-04-05T00:18:38.634Z,8.30
2019-04-05T00:21:07.791Z,8.40
2019-04-05T00:23:36.292Z,8.30
2019-04-05T00:26:05.363Z,8.30
2019-04-05T00:28:33.978Z,8.40
2019-04-05T00:31:02.539Z,8.40
2019-04-05T00:33:31.109Z,8.40
2019-04-05T00:35:59.720Z,8.30
2019-04-05T00:38:28.259Z,8.30
2019-04-05T00:40:56.849Z,8.30
2019-04-05T00:43:25.436Z,8.30
2019-04-05T00:45:53.971Z,8.30
2019-04-05T00:48:22.616Z,8.30
2019-04-05T00:50:51.238Z,8.40
2019-04-05T00:53:20.051Z,8.30
2019-04-05T00:55:49.056Z,8.30
2019-04-05T00:58:17.671Z,8.30
2019-04-05T01:00:46.357Z,8.30
2019-04-05T01:03:14.964Z,8.40
2019-04-05T01:05:43.539Z,8.30
2019-04-05T01:08:12.184Z,8.30
2019-04-05T01:10:40.829Z,8.30
2019-04-05T01:13:09.917Z,8.30
2019-04-05T01:15:41.150Z,8.30
2019-04-05T01:18:08.679Z,8.30
2019-04-05T01:20:40.220Z,8.30
2019-04-05T01:23:11.504Z,8.30
2019-04-05T01:25:41.181Z,8.30
2019-04-05T01:28:10.912Z,8.30
2019-04-05T01:30:39.488Z,8.30
2019-04-05T01:33:08.065Z,8.30
2019-04-05T01:35:36.672Z,8.20
2019-04-05T01:38:05.488Z,8.20
2019-04-05T01:40:36.442Z,8.20
2019-04-05T01:43:06.755Z,8.10
2019-04-05T01:45:35.624Z,8.10
2019-04-05T01:48:04.364Z,8.00
2019-04-05T01:50:33.371Z,8.00
2019-04-05T01:53:02.396Z,8.00
2019-04-05T01:55:30.971Z,7.90
2019-04-05T01:57:59.551Z,7.90
2019-04-05T02:00:28.057Z,7.90
2019-04-05T02:02:56.967Z,7.90
2019-04-05T02:05:25.575Z,7.80
2019-04-05T02:07:54.293Z,7.80
2019-04-05T02:10:22.895Z,7.80
2019-04-05T02:12:51.464Z,7.80
2019-04-05T02:15:25.680Z,7.70
2019-04-05T02:17:54.540Z,7.70
2019-04-05T02:20:23.251Z,7.70
2019-04-05T02:22:52.339Z,7.60
2019-04-05T02:25:20.973Z,7.60
2019-04-05T02:27:49.606Z,7.50
2019-04-05T02:30:19.281Z,7.50
2019-04-05T02:32:47.963Z,7.50
2019-04-05T02:35:16.602Z,7.40
2019-04-05T02:37:45.233Z,7.40
2019-04-05T02:40:16.552Z,7.50
2019-04-05T02:42:47.655Z,7.40
2019-04-05T02:45:18.812Z,7.40
2019-04-05T02:47:51.842Z,7.40
2019-04-05T02:50:23.234Z,7.50
2019-04-05T02:52:54.734Z,7.40
2019-04-05T02:55:25.748Z,7.40
2019-04-05T02:57:55.095Z,7.30
2019-04-05T03:00:23.768Z,7.30
2019-04-05T03:02:52.956Z,7.30
2019-04-05T03:05:23.369Z,7.30
2019-04-05T03:07:52.333Z,7.30
2019-04-05T03:10:55.825Z,7.30
2019-04-05T03:13:30.418Z,7.20
2019-04-05T03:16:02.001Z,7.20
2019-04-05T03:18:32.508Z,7.20
2019-04-05T03:21:04.160Z,7.20
2019-04-05T03:23:35.805Z,7.20
2019-04-05T03:26:07.199Z,7.20
2019-04-05T03:28:38.409Z,7.20
2019-04-05T03:31:07.308Z,7.20
2019-04-05T03:33:35.938Z,7.30
2019-04-05T03:36:05.065Z,7.30
2019-04-05T03:38:33.706Z,7.30
2019-04-05T03:41:02.448Z,7.30
2019-04-05T03:43:31.158Z,7.30
2019-04-05T03:46:00.036Z,7.30
2019-04-05T03:48:28.888Z,7.20
2019-04-05T03:50:58.361Z,7.20
2019-04-05T03:53:27.680Z,7.20
2019-04-05T03:55:56.395Z,7.20
2019-04-05T03:58:25.047Z,7.20
2019-04-05T04:00:54.328Z,7.20
2019-04-05T04:03:22.869Z,7.20
2019-04-05T04:05:51.557Z,7.30
2019-04-05T04:08:23.280Z,7.20
2019-04-05T04:10:52.298Z,7.20
2019-04-05T04:13:21.026Z,7.30
2019-04-05T04:15:50.814Z,7.30
2019-04-05T04:18:21.006Z,7.30
2019-04-05T04:20:51.892Z,7.30
2019-04-05T04:23:23.549Z,7.40
2019-04-05T04:25:53.563Z,7.30
2019-04-05T04:28:22.894Z,7.40
2019-04-05T04:30:52.951Z,7.30
2019-04-05T04:33:21.497Z,7.40
2019-04-05T04:35:51.122Z,7.40
2019-04-05T04:38:20.213Z,7.40
2019-04-05T04:40:48.898Z,7.40
2019-04-05T04:43:17.845Z,7.40
2019-04-05T04:45:46.844Z,7.40
2019-04-05T04:48:17.030Z,7.40
2019-04-05T04:50:46.076Z,7.40
2019-04-05T04:53:15.864Z,7.50
2019-04-05T04:55:44.869Z,7.50
2019-04-05T04:58:13.545Z,7.50
2019-04-05T05:00:42.767Z,7.50
2019-04-05T05:03:11.614Z,7.50
2019-04-05T05:05:40.588Z,7.50
2019-04-05T05:08:09.890Z,7.50
2019-04-05T05:10:38.529Z,7.50
2019-04-05T05:13:07.473Z,7.50
2019-04-05T05:15:36.400Z,7.40
2019-04-05T05:18:05.819Z,7.40
2019-04-05T05:20:34.880Z,7.30
2019-04-05T05:23:03.608Z,7.30
2019-04-05T05:25:32.391Z,7.30
2019-04-05T05:28:01.438Z,7.20
2019-04-05T05:30:30.889Z,7.30
2019-04-05T05:32:59.708Z,7.20
2019-04-05T05:35:28.373Z,7.10
2019-04-05T05:37:57.338Z,7.10
2019-04-05T05:40:34.610Z,7.10
2019-04-05T05:42:56.639Z,7.00
2019-04-05T05:45:25.188Z,7.00
2019-04-05T05:47:53.800Z,6.90
2019-04-05T05:50:22.395Z,6.90
2019-04-05T05:52:51.044Z,6.90
2019-04-05T05:55:19.666Z,7.00
2019-04-05T05:57:48.277Z,7.00
2019-04-05T06:00:19.393Z,7.00
2019-04-05T06:02:48.595Z,7.10
2019-04-05T06:05:17.390Z,7.20
2019-04-05T06:07:45.936Z,7.30
2019-04-05T06:10:15.056Z,7.40
2019-04-05T06:12:43.679Z,7.50
2019-04-05T06:15:12.546Z,7.60
2019-04-05T06:17:41.081Z,7.60
2019-04-05T06:20:10.768Z,7.70
2019-04-05T06:22:39.345Z,7.80
2019-04-05T06:25:09.092Z,7.90
2019-04-05T06:27:37.701Z,8.10
2019-04-05T06:30:09.553Z,8.10
2019-04-05T06:32:38.121Z,8.20
2019-04-05T06:35:08.336Z,8.10
2019-04-05T06:37:36.893Z,8.10
2019-04-05T06:40:07.305Z,8.10
2019-04-05T06:42:35.908Z,8.10
2019-04-05T06:45:05.271Z,8.10
2019-04-05T06:47:33.837Z,8.20
2019-04-05T06:50:02.428Z,8.20
2019-04-05T06:52:30.961Z,8.30
2019-04-05T06:54:59.507Z,8.40
2019-04-05T06:57:28.427Z,8.60
2019-04-05T06:59:57.025Z,8.80
2019-04-05T07:02:25.593Z,9.10
2019-04-05T07:04:54.166Z,10.00
2019-04-05T07:07:22.715Z,10.90
2019-04-05T07:09:51.217Z,11.20
2019-04-05T07:12:20.701Z,11.20
2019-04-05T07:14:49.615Z,11.00
2019-04-05T07:17:18.256Z,10.80
2019-04-05T07:19:46.768Z,10.90
2019-04-05T07:22:15.275Z,11.10
2019-04-05T07:24:43.916Z,11.40
2019-04-05T07:27:12.491Z,11.30
2019-04-05T07:29:41.045Z,11.20
2019-04-05T07:32:10.577Z,11.10
2019-04-05T07:34:39.148Z,11.30
2019-04-05T07:37:07.728Z,11.60
2019-04-05T07:39:36.280Z,11.90
2019-04-05T07:42:04.947Z,12.10
2019-04-05T07:44:33.520Z,12.70
2019-04-05T07:47:02.059Z,13.90
2019-04-05T07:49:30.686Z,14.70
2019-04-05T07:51:59.274Z,16.10
2019-04-05T07:54:27.845Z,17.10
2019-04-05T07:56:56.469Z,17.80
2019-04-05T07:59:25.002Z,18.40
2019-04-05T08:01:53.553Z,18.80
2019-04-05T08:04:22.123Z,19.60
2019-04-05T08:06:51.103Z,20.70
2019-04-05T08:09:20.121Z,21.90
2019-04-05T08:11:49.444Z,23.00
2019-04-05T08:14:18.903Z,23.40
2019-04-05T08:16:47.496Z,23.50
2019-04-05T08:19:16.103Z,23.90
2019-04-05T08:21:44.692Z,23.90
2019-04-05T08:24:13.257Z,24.00
2019-04-05T08:26:41.883Z,23.70
2019-04-05T08:29:10.438Z,23.70
2019-04-05T08:31:38.976Z,23.40
2019-04-05T08:34:07.592Z,22.90
2019-04-05T08:36:36.141Z,22.30
2019-04-05T08:39:07.413Z,21.60
2019-04-05T08:41:36.029Z,20.80
2019-04-05T08:44:05.424Z,20.00
2019-04-05T08:46:34.662Z,20.40
2019-04-05T08:49:10.725Z,21.70
2019-04-05T08:51:33.695Z,22.30
2019-04-05T08:54:02.271Z,22.70
2019-04-05T08:56:30.932Z,23.30
2019-04-05T08:58:59.568Z,22.60
2019-04-05T09:01:28.142Z,22.00
2019-04-05T09:03:56.718Z,21.40
2019-04-05T09:06:25.280Z,20.50
2019-04-05T09:08:53.837Z,19.90
2019-04-05T09:11:23.303Z,19.20
2019-04-05T09:13:51.775Z,19.20
2019-04-05T09:16:20.360Z,19.40
2019-04-05T09:18:49.627Z,20.10
2019-04-05T09:21:18.317Z,20.80
2019-04-05T09:23:46.860Z,20.90
2019-04-05T09:26:15.514Z,20.40
2019-04-05T09:28:44.102Z,19.40
2019-04-05T09:31:12.747Z,18.80
2019-04-05T09:33:41.316Z,19.30
2019-04-05T09:36:09.796Z,20.60
2019-04-05T09:38:38.344Z,21.80
2019-04-05T09:41:06.860Z,22.30
2019-04-05T09:43:35.407Z,23.10
2019-04-05T09:46:04.300Z,22.60
2019-04-05T09:48:32.844Z,21.60
2019-04-05T09:51:01.635Z,20.50
2019-04-05T09:53:30.308Z,19.70
2019-04-05T09:55:58.930Z,19.30
2019-04-05T09:58:27.469Z,19.70
2019-04-05T10:00:56.024Z,20.10
2019-04-05T10:03:24.897Z,20.30
2019-04-05T10:05:53.573Z,20.00
2019-04-05T10:08:22.145Z,20.10
2019-04-05T10:10:51.389Z,21.00
2019-04-05T10:13:20.042Z,20.90
2019-04-05T10:15:48.656Z,21.30
2019-04-05T10:18:17.405Z,21.00
2019-04-05T10:20:45.949Z,20.40
2019-04-05T10:23:14.594Z,20.50
2019-04-05T10:25:44.112Z,21.60
2019-04-05T10:28:12.956Z,22.90
2019-04-05T10:30:41.565Z,24.30
2019-04-05T10:33:10.148Z,25.60
2019-04-05T10:35:38.794Z,26.10
2019-04-05T10:38:07.436Z,26.30
2019-04-05T10:40:36.060Z,26.20
2019-04-05T10:43:04.956Z,26.70
2019-04-05T10:45:33.568Z,27.20
2019-04-05T10:48:02.244Z,27.60
2019-04-05T10:50:31.309Z,28.10
2019-04-05T10:52:59.863Z,27.80
2019-04-05T10:55:28.426Z,26.80
2019-04-05T10:57:57.000Z,26.70
2019-04-05T11:00:26.509Z,27.20
2019-04-05T11:02:55.425Z,27.20
2019-04-05T11:05:23.951Z,27.10
2019-04-05T11:07:52.495Z,26.60
2019-04-05T11:10:21.178Z,26.20
2019-04-05T11:12:50.283Z,25.60
2019-04-05T11:15:20.277Z,25.10
2019-04-05T11:17:48.851Z,24.90
2019-04-05T11:20:21.935Z,24.70
2019-04-05T11:22:50.278Z,24.30
2019-04-05T11:25:20.899Z,23.60
2019-04-05T11:27:49.840Z,24.20
2019-04-05T11:30:21.469Z,24.90
2019-04-05T11:32:50.061Z,25.40
2019-04-05T11:35:19.177Z,25.80
2019-04-05T11:37:50.673Z,25.70
2019-04-05T11:40:18.619Z,25.90
2019-04-05T11:42:48.304Z,25.50
2019-04-05T11:45:18.493Z,25.40
2019-04-05T11:47:47.768Z,25.40
2019-04-05T11:50:16.881Z,24.70
2019-04-05T11:52:45.495Z,24.20
2019-04-05T11:55:14.359Z,23.90
2019-04-05T11:57:42.872Z,23.80
2019-04-05T12:00:16.620Z,23.70
2019-04-05T12:02:49.342Z,23.50
2019-04-05T12:05:20.248Z,23.70
2019-04-05T12:07:48.493Z,23.60
2019-04-05T12:10:19.466Z,23.50
2019-04-05T12:12:47.939Z,23.00
2019-04-05T12:15:16.635Z,22.60
2019-04-05T12:17:45.248Z,22.70
2019-04-05T12:20:14.568Z,22.80
2019-04-05T12:22:43.221Z,23.10
2019-04-05T12:25:12.195Z,22.80
2019-04-05T12:27:40.764Z,22.00
2019-04-05T12:30:12.039Z,21.50
2019-04-05T12:32:41.563Z,21.30
2019-04-05T12:35:11.272Z,21.00
2019-04-05T12:37:49.493Z,20.70
2019-04-05T12:40:11.245Z,20.70
2019-04-05T12:42:43.509Z,20.80
2019-04-05T12:45:14.664Z,21.10
2019-04-05T12:47:45.332Z,21.20
2019-04-05T12:50:14.635Z,20.90
2019-04-05T12:52:43.023Z,20.50
2019-04-05T12:55:12.359Z,20.30
2019-04-05T12:57:40.864Z,20.40
2019-04-05T13:00:15.273Z,20.60
2019-04-05T13:02:44.391Z,21.00
2019-04-05T13:05:13.307Z,21.00
2019-04-05T13:07:41.859Z,20.70
2019-04-05T13:10:11.197Z,20.50
2019-04-05T13:12:39.758Z,20.50
2019-04-05T13:15:12.920Z,20.40
2019-04-05T13:17:39.384Z,20.20
2019-04-05T13:20:07.987Z,20.20
2019-04-05T13:22:36.630Z,20.10
2019-04-05T13:25:10.764Z,19.90
2019-04-05T13:27:41.086Z,19.80
2019-04-05T13:30:08.249Z,19.80
2019-04-05T13:32:36.849Z,19.70
2019-04-05T13:35:06.973Z,19.60
2019-04-05T13:37:35.545Z,19.60
2019-04-05T13:40:06.613Z,19.50
2019-04-05T13:42:35.673Z,19.40
2019-04-05T13:45:07.832Z,19.20
2019-04-05T13:47:38.956Z,19.00
2019-04-05T13:50:10.924Z,18.90
2019-04-05T13:52:41.459Z,18.90
2019-04-05T13:55:11.233Z,18.90
2019-04-05T13:57:40.872Z,18.90
2019-04-05T14:00:10.576Z,18.90
2019-04-05T14:02:40.692Z,18.80
2019-04-05T14:05:09.670Z,18.80
2019-04-05T14:07:38.208Z,18.80
2019-04-05T14:10:10.490Z,18.80
2019-04-05T14:12:40.226Z,18.80
2019-04-05T14:15:11.444Z,18.70
2019-04-05T14:17:39.167Z,18.60
2019-04-05T14:20:09.315Z,18.40
2019-04-05T14:22:38.059Z,18.20
2019-04-05T14:25:08.045Z,17.90
2019-04-05T14:27:36.843Z,17.70
2019-04-05T14:30:08.988Z,17.70
2019-04-05T14:32:37.598Z,17.70
2019-04-05T14:35:08.407Z,17.70
2019-04-05T14:37:37.258Z,17.70
2019-04-05T14:40:08.428Z,17.80
2019-04-05T14:42:37.352Z,17.80
2019-04-05T14:45:08.438Z,18.00
2019-04-05T14:47:37.058Z,18.00
2019-04-05T14:50:07.236Z,18.10
2019-04-05T14:52:36.114Z,18.10
2019-04-05T14:55:05.788Z,18.20
2019-04-05T14:57:35.499Z,18.20
2019-04-05T15:00:08.090Z,18.10
2019-04-05T15:02:37.043Z,18.10
2019-04-05T15:05:07.373Z,18.00
2019-04-05T15:07:37.744Z,17.80
2019-04-05T15:10:07.821Z,17.70
2019-04-05T15:12:36.412Z,17.60
2019-04-05T15:15:08.853Z,17.50
2019-04-05T15:17:48.019Z,17.40
2019-04-05T15:20:08.985Z,17.50
2019-04-05T15:22:39.503Z,17.50
2019-04-05T15:25:08.678Z,17.40
2019-04-05T15:27:37.289Z,17.40
2019-04-05T15:30:08.237Z,17.40
2019-04-05T15:32:37.555Z,17.30
2019-04-05T15:35:08.133Z,17.20
2019-04-05T15:37:37.741Z,17.20
2019-04-05T15:40:08.274Z,17.10
2019-04-05T15:42:36.875Z,17.10
2019-04-05T15:45:08.420Z,17.10
2019-04-05T15:47:37.714Z,17.10
2019-04-05T15:50:08.171Z,17.10
2019-04-05T15:52:36.727Z,17.10
2019-04-05T15:55:07.670Z,17.10
2019-04-05T15:57:39.216Z,17.00
2019-04-05T16:00:11.044Z,16.90
2019-04-05T16:02:39.609Z,16.80
2019-04-05T16:05:09.317Z,16.70
2019-04-05T16:07:38.093Z,16.50
2019-04-05T16:10:11.203Z,16.40
2019-04-05T16:12:40.126Z,16.20
2019-04-05T16:15:09.594Z,16.10
2019-04-05T16:17:38.500Z,16.00
2019-04-05T16:20:11.595Z,15.90
2019-04-05T16:22:40.179Z,15.80
2019-04-05T16:25:10.721Z,15.80
2019-04-05T16:27:39.886Z,15.70
2019-04-05T16:30:08.888Z,15.60
2019-04-05T16:32:37.466Z,15.50
2019-04-05T16:35:07.352Z,15.50
2019-04-05T16:37:36.370Z,15.40
2019-04-05T16:40:08.699Z,15.30
2019-04-05T16:42:37.237Z,15.20
2019-04-05T16:45:10.386Z,15.10
2019-04-05T16:47:38.859Z,15.10
2019-04-05T16:50:08.382Z,15.00
2019-04-05T16:52:44.749Z,14.80
2019-04-05T16:55:07.899Z,14.80
2019-04-05T16:57:36.550Z,14.70
2019-04-05T17:00:11.497Z,14.60
2019-04-05T17:02:40.022Z,14.50
2019-04-05T17:05:09.406Z,14.50
2019-04-05T17:07:37.927Z,14.30
2019-04-05T17:10:07.046Z,14.20
2019-04-05T17:12:35.649Z,14.20
2019-04-05T17:15:06.647Z,14.10
2019-04-05T17:17:35.222Z,14.00
2019-04-05T17:20:05.245Z,14.00
2019-04-05T17:22:33.846Z,13.90
2019-04-05T17:25:04.414Z,13.80
2019-04-05T17:27:32.640Z,13.80
2019-04-05T17:30:01.212Z,13.70
2019-04-05T17:32:29.957Z,13.60
2019-04-05T17:34:58.504Z,13.50
2019-04-05T17:37:27.115Z,13.40
2019-04-05T17:39:55.656Z,13.30
2019-04-05T17:42:24.241Z,13.30
2019-04-05T17:44:52.860Z,13.20
2019-04-05T17:47:21.444Z,13.10
2019-04-05T17:49:50.033Z,13.00
2019-04-05T17:52:18.632Z,13.00
2019-04-05T17:54:47.200Z,12.90
2019-04-05T17:57:16.700Z,12.90
2019-04-05T17:59:45.344Z,12.80
2019-04-05T18:02:13.993Z,12.80
2019-04-05T18:04:42.547Z,12.70
2019-04-05T18:07:11.164Z,12.70
2019-04-05T18:09:39.673Z,12.60
2019-04-05T18:12:09.021Z,12.70
2019-04-05T18:14:37.667Z,12.60
2019-04-05T18:17:06.245Z,12.60
2019-04-05T18:19:36.328Z,12.50
2019-04-05T18:22:05.453Z,12.50
2019-04-05T18:24:34.092Z,12.50
2019-04-05T18:27:02.664Z,12.50
2019-04-05T18:29:31.702Z,12.40
2019-04-05T18:32:00.268Z,12.40
2019-04-05T18:34:28.855Z,12.30
2019-04-05T18:36:57.470Z,12.20
2019-04-05T18:39:26.109Z,12.20
2019-04-05T18:41:54.762Z,12.20
2019-04-05T18:44:23.382Z,12.10
2019-04-05T18:46:51.956Z,12.00
2019-04-05T18:49:20.497Z,12.00
2019-04-05T18:51:49.088Z,11.90
2019-04-05T18:54:17.867Z,11.90
2019-04-05T18:56:46.442Z,11.80
2019-04-05T18:59:15.088Z,11.80
2019-04-05T19:01:43.671Z,11.70
2019-04-05T19:04:12.246Z,11.70
2019-04-05T19:06:40.828Z,11.70
2019-04-05T19:09:11.834Z,11.60
2019-04-05T19:11:39.780Z,11.60
2019-04-05T19:14:08.464Z,11.50
2019-04-05T19:16:36.972Z,11.50
2019-04-05T19:19:05.586Z,11.50
2019-04-05T19:21:34.263Z,11.50
2019-04-05T19:24:02.830Z,11.40
2019-04-05T19:26:31.372Z,11.40
2019-04-05T19:29:00.261Z,11.30
2019-04-05T19:49:00.757Z,10.90
2019-04-05T19:51:29.355Z,10.90
2019-04-05T19:54:01.315Z,10.90
2019-04-05T19:56:28.206Z,10.90
2019-04-05T19:58:56.792Z,10.80
2019-04-05T20:01:25.367Z,10.90
2019-04-05T20:03:53.909Z,10.80
2019-04-05T20:06:22.551Z,10.80
2019-04-05T20:08:51.159Z,10.70
2019-04-05T20:11:19.820Z,10.70
2019-04-05T20:13:48.398Z,10.70
2019-04-05T20:16:16.917Z,10.70
2019-04-05T20:18:45.458Z,10.60
2019-04-05T20:21:14.030Z,10.60
2019-04-05T20:23:47.628Z,10.60
2019-04-05T20:26:13.379Z,10.50
2019-04-05T20:28:41.966Z,10.40
2019-04-05T20:31:10.456Z,10.50
2019-04-05T20:33:39.045Z,10.40
2019-04-05T20:36:07.659Z,10.30
2019-04-05T20:38:36.210Z,10.30
2019-04-05T20:41:04.856Z,10.20
2019-04-05T20:43:33.460Z,10.20
2019-04-05T20:46:02.010Z,10.20
2019-04-05T20:48:30.583Z,10.20
2019-04-05T20:50:59.180Z,10.10
2019-04-05T20:53:27.763Z,10.10
2019-04-05T20:55:56.288Z,10.10
2019-04-05T20:58:24.835Z,10.10
2019-04-05T21:00:53.427Z,10.10
2019-04-05T21:03:21.895Z,10.00
2019-04-05T21:05:50.434Z,10.00
2019-04-05T21:08:19.022Z,10.00
2019-04-05T21:10:47.563Z,9.90
2019-04-05T21:13:16.120Z,9.90
2019-04-05T21:15:44.694Z,9.80
2019-04-05T21:18:13.261Z,9.80
2019-04-05T21:20:41.903Z,9.80
2019-04-05T21:23:10.402Z,9.80
2019-04-05T21:25:38.909Z,9.80
2019-04-05T21:28:07.519Z,9.80
2019-04-05T21:30:36.043Z,9.80
2019-04-05T21:33:05.162Z,9.80
2019-04-05T21:35:33.951Z,9.80
2019-04-05T21:38:02.501Z,9.70
2019-04-05T21:40:31.048Z,9.80
2019-04-05T21:42:59.688Z,9.70
2019-04-05T21:45:28.342Z,9.80
2019-04-05T21:47:56.879Z,9.70
2019-04-05T21:50:25.487Z,9.70
2019-04-05T21:52:54.018Z,9.70
2019-04-05T21:55:22.600Z,9.70
2019-04-05T21:57:51.247Z,9.70
2019-04-05T22:00:28.650Z,9.70
2019-04-05T22:02:57.266Z,9.70
2019-04-05T22:05:25.908Z,9.70
2019-04-05T22:07:54.466Z,9.70
2019-04-05T22:10:23.050Z,9.70
2019-04-05T22:12:51.606Z,9.60
2019-04-05T22:15:20.186Z,9.60
2019-04-05T22:17:48.799Z,9.60
2019-04-05T22:20:17.381Z,9.50
2019-04-05T22:22:45.959Z,9.50
2019-04-05T22:25:15.522Z,9.40
2019-04-05T22:27:44.110Z,9.30
2019-04-05T22:30:13.107Z,9.30
2019-04-05T22:32:41.688Z,9.30
2019-04-05T22:35:10.287Z,9.30
2019-04-05T22:37:38.759Z,9.20
2019-04-05T22:40:07.567Z,9.20
2019-04-05T22:42:36.116Z,9.20
2019-04-05T22:45:06.887Z,9.20
2019-04-05T22:47:36.436Z,9.20
2019-04-05T22:50:06.441Z,9.10
2019-04-05T22:52:35.010Z,9.10
2019-04-05T22:55:11.008Z,9.00
2019-04-05T22:57:34.615Z,9.00
2019-04-05T23:00:03.659Z,8.90
2019-04-05T23:02:32.187Z,8.80
2019-04-05T23:05:01.046Z,8.70
2019-04-05T23:07:29.628Z,8.70
2019-04-05T23:09:58.923Z,8.60
2019-04-05T23:12:27.499Z,8.60
2019-04-05T23:14:56.036Z,8.50
2019-04-05T23:17:24.648Z,8.50
2019-04-05T23:19:53.222Z,8.50
2019-04-05T23:22:21.835Z,8.40
2019-04-05T23:24:50.410Z,8.40
2019-04-05T23:27:18.979Z,8.30
2019-04-05T23:29:47.545Z,8.30
2019-04-05T23:32:16.142Z,8.20
2019-04-05T23:34:44.690Z,8.30
2019-04-05T23:37:13.507Z,8.20
2019-04-05T23:39:42.125Z,8.20
2019-04-05T23:42:10.676Z,8.10
2019-04-05T23:44:39.269Z,8.10
2019-04-05T23:47:07.920Z,8.00
2019-04-05T23:49:36.484Z,8.00
2019-04-05T23:52:05.021Z,7.90
2019-04-05T23:54:33.648Z,7.90
2019-04-05T23:57:02.182Z,7.90
2019-04-05T23:59:30.763Z,7.80
